Seeley, CA

09:02 PDT le 28 mai 2015 (GMT -0700)
El Centro Naval Air Facility | | Change Station
CLOSE
Current Station
Aéroport
Location: El Centro,
Altitude: -43 ft
Stations météo à proximité

Alt. -43 ft 32.83 °N, 115.66 °W | Updated 1 hour ago

Ciel dégagé
Ciel dégagé
73 ° F
Paraît 73 ° F
N
4
Vent Variable Vent de SE

Aujourd'hui
Haut(e) -- | Bas -- ° F
--% Risque de précip.
Hier
Haut(e) -- | Bas -- ° F
Precip. -- pouce
5:36 AM 7:43 PM
Lune gibbeuse croissante, 77% visible
Pression 29.94 pouce
Visibilité 10.0 Miles terrestres
Nuages Peu 25000 ft
Point de rosée 60 ° F
Humidité 64%
Précipitations 0.00 pouce
Profondeur de la couche neigeuse Non disponible.
UV 2 sur 12
Pollen 4.60 sur 12
Qualité de l'air Non disponible.
Flu Activity Sporadic
METAR KNJK 281456Z 13003KT 10SM FEW250 23/16 A2989 RMK AO2 SLP136 T02280156 52019

More Conditions Fewer Conditions

Pression 29.94 pouce
Visibilité 10.0 Miles terrestres
Nuages Peu 25000 ft
Point de rosée 60 ° F
Humidité 64%
Précipitations 0.00 pouce
Profondeur de la couche neigeuse Non disponible.
UV 2 sur 12
Pollen 4.60 sur 12
Qualité de l'air Non disponible.
Flu Activity Sporadic
METAR KNJK 281456Z 13003KT 10SM FEW250 23/16 A2989 RMK AO2 SLP136 T02280156 52019

More Conditions Fewer Conditions

10-Day Weather Forecast

Almanac

Astronomie

May. 28, 2015 Lever Coucher
Temps réel
Crépuscule civil
Crépuscule nautique
Crépuscule astronomique
Lune
Durée de lumière visible
Longueur du jour
Tomorrow will be .
, % of the Moon is Illuminated

Extrêmes aujourd'hui

State Highs State Lows

Community

WunderPhotos

Upload Photos

1,825,002 Photos téléchargées !

WunderBlogs® & News

Nearby

Qualité de l'air

  Qualité de l'air Indice de la qualité de l'air Polluant
Not available.

Épaisseur de neige

Station Depth Altitude

Activité sismique

Ville Distance Mag. Time & Date
Minimum magnitude displayed is 2.5.

Températures des eaux côtières

Lieu Température

Stations

Stations météo à proximité

Emplacement de la station Température Refroidissement éolien Point de rosée Humidité Vent Precip. Alt. Mise à jour Type